createdAt,value
2022-08-03T00:00:55.012Z,55.24
2022-08-03T00:06:04.772Z,56.85
2022-08-03T00:11:08.031Z,58.17
2022-08-03T00:16:10.958Z,59.58
2022-08-03T00:21:13.666Z,68.74
2022-08-03T00:26:18.718Z,61.05
2022-08-03T00:31:23.098Z,53.90
2022-08-03T00:36:42.797Z,55.32
2022-08-03T00:41:45.465Z,56.92
2022-08-03T00:46:48.209Z,58.40
2022-08-03T00:51:51.311Z,59.68
2022-08-03T00:57:00.034Z,68.38
2022-08-03T01:02:03.259Z,60.56
2022-08-03T01:07:25.917Z,54.12
2022-08-03T01:12:31.713Z,55.19
2022-08-03T01:17:44.587Z,57.18
2022-08-03T01:23:28.985Z,58.75
2022-08-03T01:29:02.435Z,68.12
2022-08-03T01:34:09.309Z,58.16
2022-08-03T01:39:19.339Z,54.10
2022-08-03T01:44:29.786Z,55.93
2022-08-03T01:49:39.655Z,57.41
2022-08-03T01:54:45.664Z,58.85
2022-08-03T01:59:50.998Z,66.93
2022-08-03T02:04:56.999Z,60.15
2022-08-03T02:10:02.927Z,53.64
2022-08-03T02:15:07.288Z,55.15
2022-08-03T02:20:13.606Z,57.07
2022-08-03T02:25:16.557Z,58.05
2022-08-03T02:30:20.771Z,57.17
2022-08-03T02:35:26.517Z,67.79
2022-08-03T02:40:31.555Z,59.49
2022-08-03T02:45:36.825Z,53.73
2022-08-03T02:50:40.554Z,55.07
2022-08-03T02:55:45.989Z,56.92
2022-08-03T03:00:51.968Z,58.24
2022-08-03T03:05:57.659Z,59.68
2022-08-03T03:11:02.032Z,68.97
2022-08-03T03:16:06.467Z,60.24
2022-08-03T03:21:10.390Z,53.95
2022-08-03T03:26:15.466Z,55.66
2022-08-03T03:31:18.223Z,56.94
2022-08-03T03:36:20.955Z,58.23
2022-08-03T03:41:23.820Z,59.66
2022-08-03T03:46:26.803Z,68.54
2022-08-03T03:51:29.599Z,60.03
2022-08-03T03:56:32.999Z,53.81
2022-08-03T04:01:35.771Z,55.53
2022-08-03T04:06:56.992Z,57.51
2022-08-03T04:12:01.875Z,58.67
2022-08-03T04:17:09.418Z,59.83
2022-08-03T04:22:15.130Z,68.85
2022-08-03T04:27:22.510Z,60.48
2022-08-03T04:32:28.831Z,53.91
2022-08-03T04:37:48.179Z,55.64
2022-08-03T04:42:53.741Z,57.90
2022-08-03T04:47:57.770Z,59.44
2022-08-03T04:53:00.677Z,67.63
2022-08-03T04:58:05.127Z,59.45
2022-08-03T05:03:23.720Z,54.49
2022-08-03T05:08:27.826Z,57.09
2022-08-03T05:13:31.334Z,58.95
2022-08-03T05:18:34.186Z,59.94
2022-08-03T05:23:38.016Z,67.50
2022-08-03T05:28:51.373Z,58.82
2022-08-03T05:33:54.892Z,54.48
2022-08-03T05:39:02.452Z,56.01
2022-08-03T05:44:06.073Z,57.60
2022-08-03T05:49:08.845Z,58.63
2022-08-03T05:54:11.941Z,60.59
2022-08-03T05:59:36.962Z,68.52
2022-08-03T06:04:38.166Z,56.75
2022-08-03T06:10:33.627Z,53.80
2022-08-03T06:15:05.433Z,55.36
2022-08-03T06:20:11.042Z,56.49
2022-08-03T06:25:14.255Z,56.73
2022-08-03T06:30:21.059Z,57.85
2022-08-03T06:35:24.592Z,59.28
2022-08-03T06:40:31.381Z,60.49
2022-08-03T06:45:35.487Z,65.24
2022-08-03T06:50:41.577Z,51.88
2022-08-03T06:55:45.341Z,51.07
2022-08-03T07:00:48.180Z,52.73
2022-08-03T07:05:51.397Z,53.51
2022-08-03T07:10:54.612Z,52.18
2022-08-03T07:15:57.461Z,53.11
2022-08-03T07:21:00.150Z,51.63
2022-08-03T07:26:03.065Z,52.60
2022-08-03T07:31:05.772Z,53.46
2022-08-03T07:36:08.481Z,53.30
2022-08-03T07:41:11.672Z,53.02
2022-08-03T07:46:15.162Z,52.35
2022-08-03T07:51:17.884Z,50.92
2022-08-03T07:56:21.447Z,49.94
2022-08-03T08:01:24.316Z,50.22
2022-08-03T08:06:27.173Z,48.96
2022-08-03T08:11:29.929Z,48.74
2022-08-03T08:16:34.313Z,48.95
2022-08-03T08:21:53.982Z,48.46
2022-08-03T08:27:01.507Z,48.63
2022-08-03T08:32:04.937Z,48.49
2022-08-03T08:37:08.011Z,48.69
2022-08-03T08:42:10.718Z,48.18
2022-08-03T08:47:14.871Z,47.89
2022-08-03T08:52:29.478Z,47.74
2022-08-03T08:57:43.102Z,47.80
2022-08-03T09:02:47.092Z,47.50
2022-08-03T09:07:50.283Z,46.47
2022-08-03T09:12:53.311Z,46.06
2022-08-03T09:17:58.106Z,45.58
2022-08-03T09:23:24.691Z,45.42
2022-08-03T09:28:59.916Z,45.25
2022-08-03T09:34:01.240Z,44.35
2022-08-03T09:39:06.570Z,43.21
2022-08-03T09:44:24.472Z,42.78
2022-08-03T09:49:28.650Z,42.24
2022-08-03T09:54:32.527Z,41.51
2022-08-03T09:59:35.436Z,40.32
2022-08-03T10:04:48.732Z,39.92
2022-08-03T10:10:31.302Z,39.90
2022-08-03T10:16:23.840Z,40.22
2022-08-03T10:20:54.658Z,39.24
2022-08-03T10:26:01.975Z,39.56
2022-08-03T10:31:07.940Z,39.19
2022-08-03T10:36:13.577Z,38.29
2022-08-03T10:41:20.027Z,38.36
2022-08-03T10:46:23.001Z,38.32
2022-08-03T10:51:30.617Z,37.63
2022-08-03T10:56:51.783Z,36.62
2022-08-03T11:02:00.121Z,36.74
2022-08-03T11:07:15.932Z,37.10
2022-08-03T11:12:30.608Z,36.61
2022-08-03T11:17:46.117Z,36.05
2022-08-03T11:23:01.156Z,35.72
2022-08-03T11:28:22.842Z,35.47
2022-08-03T11:33:31.939Z,36.49
2022-08-03T11:38:34.673Z,35.57
2022-08-03T11:43:37.737Z,35.61
2022-08-03T11:48:45.513Z,35.61
2022-08-03T11:53:53.077Z,35.48
2022-08-03T11:59:18.194Z,35.15
2022-08-03T12:04:21.065Z,35.26
2022-08-03T12:09:23.839Z,35.03
2022-08-03T12:14:49.019Z,35.26
2022-08-03T12:19:51.274Z,34.93
2022-08-03T12:24:54.302Z,34.83
2022-08-03T12:29:59.378Z,34.80
2022-08-03T12:35:04.628Z,34.65
2022-08-03T12:40:13.219Z,34.37
2022-08-03T12:45:20.295Z,34.02
2022-08-03T12:50:35.851Z,33.98
2022-08-03T12:55:56.994Z,33.88
2022-08-03T13:01:09.152Z,33.29
2022-08-03T13:06:17.678Z,32.92
2022-08-03T13:11:22.819Z,31.80
2022-08-03T13:16:45.501Z,31.87
2022-08-03T13:22:03.228Z,32.01
2022-08-03T13:28:01.661Z,32.49
2022-08-03T13:32:31.445Z,31.96
2022-08-03T13:37:34.335Z,32.01
2022-08-03T13:42:38.994Z,32.54
2022-08-03T13:47:42.081Z,32.96
2022-08-03T13:52:46.483Z,32.88
2022-08-03T13:58:11.466Z,32.71
2022-08-03T14:03:14.516Z,32.32
2022-08-03T14:08:18.578Z,32.54
2022-08-03T14:13:21.543Z,32.26
2022-08-03T14:18:28.872Z,32.29
2022-08-03T14:23:40.028Z,31.93
2022-08-03T14:28:42.721Z,31.91
2022-08-03T14:33:45.485Z,31.90
2022-08-03T14:38:48.335Z,31.63
2022-08-03T14:44:00.519Z,31.50
2022-08-03T14:50:38.377Z,31.96
2022-08-03T14:54:31.145Z,32.08
2022-08-03T14:59:55.666Z,31.89
2022-08-03T15:04:56.990Z,32.05
2022-08-03T15:09:59.716Z,32.10
2022-08-03T15:15:06.132Z,32.16
2022-08-03T15:20:25.505Z,32.46
2022-08-03T15:26:04.113Z,32.12
2022-08-03T15:30:56.319Z,31.85
2022-08-03T15:36:00.397Z,31.26
2022-08-03T15:41:03.203Z,30.81
2022-08-03T15:46:28.822Z,30.58
2022-08-03T15:51:28.946Z,30.23
2022-08-03T15:56:31.663Z,30.46
2022-08-03T16:01:34.877Z,30.22
2022-08-03T16:06:37.941Z,30.52
2022-08-03T16:11:40.646Z,30.41
2022-08-03T16:16:43.590Z,30.85
2022-08-03T16:21:48.250Z,31.19
2022-08-03T16:26:51.760Z,31.19
2022-08-03T16:31:54.459Z,31.67
2022-08-03T16:36:57.231Z,31.76
2022-08-03T16:42:01.717Z,31.75
2022-08-03T16:47:04.838Z,31.66
2022-08-03T16:52:07.700Z,31.79
2022-08-03T16:57:10.412Z,31.92
2022-08-03T17:02:27.268Z,32.33
2022-08-03T17:07:30.369Z,32.36
2022-08-03T17:12:33.347Z,32.53
2022-08-03T17:17:53.783Z,32.99
2022-08-03T17:23:34.694Z,33.40
2022-08-03T17:28:50.115Z,34.33
2022-08-03T17:34:01.352Z,34.26
2022-08-03T17:39:06.476Z,34.40
2022-08-03T17:44:15.687Z,34.24
2022-08-03T17:49:24.678Z,34.82
2022-08-03T17:55:51.521Z,35.25
2022-08-03T18:00:29.806Z,35.62
2022-08-03T18:06:11.466Z,35.89
2022-08-03T18:11:14.282Z,36.33
2022-08-03T18:16:24.804Z,36.48
2022-08-03T18:22:02.733Z,36.71
2022-08-03T18:26:53.576Z,36.95
2022-08-03T18:32:04.265Z,37.23
2022-08-03T18:37:12.242Z,37.41
2022-08-03T18:42:25.761Z,37.79
2022-08-03T18:47:50.969Z,38.17
2022-08-03T18:52:55.431Z,38.01
2022-08-03T18:58:19.824Z,38.36
2022-08-03T19:03:24.819Z,38.64
2022-08-03T19:08:33.401Z,38.84
2022-08-03T19:19:14.372Z,40.73
2022-08-03T19:24:23.322Z,41.69
2022-08-03T19:29:33.338Z,42.49
2022-08-03T19:34:54.161Z,43.14
2022-08-03T19:40:00.653Z,42.72
2022-08-03T19:45:11.303Z,44.14
2022-08-03T19:50:20.035Z,44.84
2022-08-03T19:55:23.808Z,45.54
2022-08-03T20:00:36.769Z,46.30
2022-08-03T20:05:51.901Z,46.93
2022-08-03T20:10:55.550Z,47.42
2022-08-03T20:15:58.388Z,48.05
2022-08-03T20:21:14.800Z,48.30
2022-08-03T20:26:20.357Z,48.72
2022-08-03T20:31:32.216Z,48.89
2022-08-03T20:36:39.108Z,49.51
2022-08-03T20:41:42.017Z,50.30
2022-08-03T20:46:53.169Z,50.43
2022-08-03T20:52:03.540Z,50.82
2022-08-03T20:57:09.577Z,51.58
2022-08-03T21:02:13.341Z,52.24
2022-08-03T21:07:24.434Z,52.43
2022-08-03T21:13:08.943Z,39.59
2022-08-03T21:13:19.059Z,52.67
2022-08-03T21:18:23.486Z,53.03
2022-08-03T21:23:39.981Z,53.32
2022-08-03T21:28:52.857Z,53.86
2022-08-03T21:34:04.147Z,54.35
2022-08-03T21:39:09.023Z,54.63
2022-08-03T21:44:11.961Z,55.18
2022-08-03T21:50:05.555Z,55.09
2022-08-03T21:54:42.174Z,55.20
2022-08-03T21:59:52.977Z,55.45
2022-08-03T22:04:57.297Z,55.64
2022-08-03T22:10:02.894Z,55.99
2022-08-03T22:15:08.849Z,56.17
2022-08-03T22:20:14.489Z,56.73
2022-08-03T22:25:17.557Z,55.77
2022-08-03T22:30:20.585Z,56.63
2022-08-03T22:35:26.054Z,56.84
2022-08-03T22:40:29.079Z,57.18
2022-08-03T22:46:06.014Z,57.25
2022-08-03T22:50:56.679Z,57.59
2022-08-03T22:55:59.683Z,57.90
2022-08-03T23:01:06.016Z,58.28
2022-08-03T23:06:09.332Z,58.69
2022-08-03T23:11:12.960Z,58.69
2022-08-03T23:16:29.299Z,59.33
2022-08-03T23:21:53.551Z,59.02
2022-08-03T23:26:56.686Z,59.13
2022-08-03T23:32:02.295Z,59.42
2022-08-03T23:37:05.833Z,59.25
2022-08-03T23:42:10.002Z,59.48
2022-08-03T23:47:14.036Z,59.50
2022-08-03T23:52:29.321Z,59.37
2022-08-03T23:57:52.401Z,59.62
